Time;durP1;ratioP1;P1;durP2;ratioP2;P2;SDS_P1;SDS_P2;PMS_P1;PMS_P2;Temp;Humidity;BMP_temperature;BMP_pressure;BME280_temperature;BME280_humidity;BME280_pressure;Samples;Min_cycle;Max_cycle;Signal;HPM_P1;HPM_P2
2023/01/09 00:01:17;;;;;;;;;;;;;;;4.45;62.02;94921.88;4151737;28;19995;-76
2023/01/09 00:03:19;;;;;;;;;;;;;;;4.44;61.56;94914.22;4175966;28;19974;-72
2023/01/09 00:05:20;;;;;;;;;;;;;;;4.47;61.78;94913.97;4164791;28;19924;-73
2023/01/09 00:07:22;;;;;;;;;;;;;;;4.45;62.19;94914.09;4178801;28;19928;-73
2023/01/09 00:09:24;;;;;;;;;;;;;;;4.35;61.77;94925.28;4178961;28;20039;-74
2023/01/09 00:11:25;;;;;;;;;;;;;;;4.30;62.79;94925.59;4177607;28;19921;-71
2023/01/09 00:13:27;;;;;;;;;;;;;;;4.25;62.14;94918.19;4160731;28;20015;-70
2023/01/09 00:15:28;;;;;;;;;;;;;;;4.01;61.99;94913.06;4178664;28;19932;-70
2023/01/09 00:17:30;;;;;;;;;;;;;;;3.76;63.18;94906.25;4178807;28;19935;-73
2023/01/09 00:19:32;;;;;;;;;;;;;;;3.60;63.57;94910.94;4176597;28;19928;-71
2023/01/09 00:21:34;;;;;;;;;;;;;;;3.59;63.87;94909.25;4165438;28;19947;-72
2023/01/09 00:23:36;;;;;;;;;;;;;;;3.64;64.20;94909.78;4178570;28;19925;-71
2023/01/09 00:25:37;;;;;;;;;;;;;;;3.65;64.59;94917.41;4177151;28;19921;-73
2023/01/09 00:27:42;;;;;;;;;;;;;;;3.71;64.00;94912.75;4178390;28;19962;-73
2023/01/09 00:29:45;;;;;;;;;;;;;;;3.69;64.47;94913.66;4144425;28;19981;-70
2023/01/09 00:31:46;;;;;;;;;;;;;;;3.74;64.14;94908.13;4177623;28;19925;-72
2023/01/09 00:33:55;;;;;;;;;;;;;;;3.78;64.03;94914.75;4178533;28;19932;-73
2023/01/09 00:35:57;;;;;;;;;;;;;;;3.73;63.29;94916.03;4159258;28;19921;-70
2023/01/09 00:37:58;;;;;;;;;;;;;;;3.38;63.69;94914.25;4177909;28;20080;-72
2023/01/09 00:40:00;;;;;;;;;;;;;;;3.00;65.83;94916.00;4178035;28;19924;-71
2023/01/09 00:42:02;;;;;;;;;;;;;;;3.03;66.68;94915.81;4177611;28;19932;-72
2023/01/09 00:44:06;;;;;;;;;;;;;;;3.19;66.13;94917.31;4159651;28;19987;-72
2023/01/09 00:46:08;;;;;;;;;;;;;;;3.33;66.08;94905.97;4159405;28;19972;-73
2023/01/09 00:48:11;;;;;;;;;;;;;;;3.49;65.79;94909.94;4177917;28;20028;-73
2023/01/09 00:50:13;;;;;;;;;;;;;;;3.60;64.71;94910.94;4176162;28;19924;-73
2023/01/09 00:52:15;;;;;;;;;;;;;;;3.73;64.66;94910.88;4156010;28;19936;-72
2023/01/09 00:54:17;;;;;;;;;;;;;;;3.82;64.12;94905.81;4157686;28;20004;-71
2023/01/09 00:56:19;;;;;;;;;;;;;;;3.86;63.29;94909.84;4173577;28;20282;-71
2023/01/09 00:58:21;;;;;;;;;;;;;;;3.88;63.75;94899.38;4157054;28;19944;-72
2023/01/09 01:00:22;;;;;;;;;;;;;;;3.89;63.61;94903.59;4157093;28;19920;-71
2023/01/09 01:02:24;;;;;;;;;;;;;;;3.91;63.15;94904.31;4164059;28;19965;-71
2023/01/09 01:09:06;;;;;;;;;;;;;;;3.95;63.16;94903.16;4175909;28;20264;-73
2023/01/09 01:11:09;;;;;;;;;;;;;;;3.99;63.30;94901.16;4177218;28;19921;-71
2023/01/09 01:13:13;;;;;;;;;;;;;;;3.95;63.34;94894.56;4168695;28;20407;-71
2023/01/09 01:15:15;;;;;;;;;;;;;;;3.89;63.61;94888.91;4176763;28;20140;-70
2023/01/09 01:17:17;;;;;;;;;;;;;;;3.91;63.31;94886.16;4177932;28;19943;-70
2023/01/09 01:19:18;;;;;;;;;;;;;;;3.93;63.30;94883.47;4170793;28;20382;-70
2023/01/09 01:21:20;;;;;;;;;;;;;;;3.95;63.15;94887.59;4170967;28;19982;-71
2023/01/09 01:23:21;;;;;;;;;;;;;;;3.93;63.49;94884.28;4163702;28;19960;-74
2023/01/09 01:25:23;;;;;;;;;;;;;;;3.90;63.32;94885.34;4166225;28;20181;-71
2023/01/09 01:27:26;;;;;;;;;;;;;;;3.92;64.09;94884.41;4177443;28;20428;-72
2023/01/09 01:29:27;;;;;;;;;;;;;;;3.91;63.58;94888.75;4177602;28;20082;-69
2023/01/09 01:31:29;;;;;;;;;;;;;;;3.87;63.78;94884.75;4174137;28;20365;-70
2023/01/09 01:33:31;;;;;;;;;;;;;;;3.85;63.36;94878.84;4162645;28;19961;-70
2023/01/09 01:35:32;;;;;;;;;;;;;;;3.84;63.35;94877.19;4155531;28;20324;-72
2023/01/09 01:37:34;;;;;;;;;;;;;;;3.82;63.09;94877.31;4147801;28;19933;-72
2023/01/09 01:39:36;;;;;;;;;;;;;;;3.83;63.69;94867.75;4177081;28;19974;-73
2023/01/09 01:41:37;;;;;;;;;;;;;;;3.83;63.41;94868.59;4177616;28;19921;-71
2023/01/09 01:43:52;;;;;;;;;;;;;;;3.85;62.99;94863.28;4159291;28;19925;-72
2023/01/09 01:45:54;;;;;;;;;;;;;;;3.87;62.83;94870.03;4146211;28;19921;-72
2023/01/09 01:47:55;;;;;;;;;;;;;;;3.87;63.34;94866.59;4170404;28;19975;-71
2023/01/09 01:49:57;;;;;;;;;;;;;;;3.86;63.10;94859.78;4160689;28;19933;-70
2023/01/09 01:51:59;;;;;;;;;;;;;;;3.89;63.11;94857.78;4160746;28;19971;-72
2023/01/09 01:54:02;;;;;;;;;;;;;;;3.89;62.98;94852.59;4175373;28;19925;-73
2023/01/09 01:56:09;;;;;;;;;;;;;;;3.90;63.02;94843.06;4176987;28;19920;-71
2023/01/09 01:58:12;;;;;;;;;;;;;;;3.90;63.47;94856.03;4176614;28;20351;-71
2023/01/09 02:00:14;;;;;;;;;;;;;;;3.86;63.74;94847.63;4158552;28;19991;-72
2023/01/09 02:02:16;;;;;;;;;;;;;;;3.71;63.52;94837.59;4159189;28;19952;-70
2023/01/09 02:04:18;;;;;;;;;;;;;;;3.71;64.35;94832.41;4160020;28;19935;-72
2023/01/09 02:06:20;;;;;;;;;;;;;;;3.74;64.36;94832.19;4159755;28;20246;-72
2023/01/09 02:08:22;;;;;;;;;;;;;;;3.74;64.20;94833.00;4138295;28;19925;-71
2023/01/09 02:10:23;;;;;;;;;;;;;;;3.77;64.15;94827.59;4147617;28;20015;-74
2023/01/09 02:12:25;;;;;;;;;;;;;;;3.76;64.23;94823.34;4154176;28;20317;-71
2023/01/09 02:14:28;;;;;;;;;;;;;;;3.77;63.53;94826.78;4158828;28;19972;-71
2023/01/09 02:16:30;;;;;;;;;;;;;;;3.76;63.54;94825.94;4174306;28;19921;-72
2023/01/09 02:18:34;;;;;;;;;;;;;;;3.76;63.82;94827.72;4175257;28;19928;-72
2023/01/09 02:20:42;;;;;;;;;;;;;;;3.77;63.69;94834.56;4165187;28;19925;-71
2023/01/09 02:22:47;;;;;;;;;;;;;;;3.76;63.41;94833.72;4155228;28;19952;-73
2023/01/09 02:25:08;;;;;;;;;;;;;;;3.68;63.05;94833.47;4158313;28;20292;-72
2023/01/09 02:27:28;;;;;;;;;;;;;;;3.61;63.80;94837.44;4175616;28;20295;-71
2023/01/09 02:29:44;;;;;;;;;;;;;;;3.36;63.80;94830.66;4162333;28;19964;-73
2023/01/09 02:31:54;;;;;;;;;;;;;;;3.24;65.04;94833.19;4166984;28;19932;-75
2023/01/09 02:34:01;;;;;;;;;;;;;;;3.17;64.75;94829.41;4154864;28;19924;-72
2023/01/09 02:36:05;;;;;;;;;;;;;;;3.13;64.86;94824.56;4154391;28;20210;-71
2023/01/09 02:38:09;;;;;;;;;;;;;;;3.17;65.05;94832.00;4177602;28;20394;-71
2023/01/09 02:40:15;;;;;;;;;;;;;;;3.11;64.77;94823.84;4173790;28;19983;-71
2023/01/09 02:42:21;;;;;;;;;;;;;;;3.05;65.04;94830.28;4156676;28;20095;-71
2023/01/09 02:44:24;;;;;;;;;;;;;;;2.89;65.67;94819.38;4158830;28;20055;-71
2023/01/09 02:46:25;;;;;;;;;;;;;;;2.94;65.51;94825.03;4175518;28;19970;-72
2023/01/09 02:48:27;;;;;;;;;;;;;;;3.03;65.78;94822.63;4173148;28;19944;-70
2023/01/09 02:50:31;;;;;;;;;;;;;;;3.12;65.74;94815.97;4154264;28;20020;-72
2023/01/09 02:52:44;;;;;;;;;;;;;;;3.20;65.63;94816.22;4172122;28;19925;-71
2023/01/09 02:55:04;;;;;;;;;;;;;;;3.31;65.59;94812.03;4157632;28;19925;-71
2023/01/09 02:57:21;;;;;;;;;;;;;;;3.35;64.84;94813.47;4167883;28;19966;-72
2023/01/09 02:59:24;;;;;;;;;;;;;;;3.37;64.96;94814.19;4171096;28;20390;-71
2023/01/09 03:01:26;;;;;;;;;;;;;;;3.36;64.82;94815.13;4175652;28;19932;-71
2023/01/09 03:03:31;;;;;;;;;;;;;;;3.38;65.14;94813.25;4118691;28;1311130;-71
2023/01/09 03:05:35;;;;;;;;;;;;;;;3.48;65.32;94814.19;4167540;28;19920;-73
2023/01/09 03:07:57;;;;;;;;;;;;;;;3.49;64.40;94811.50;4159664;28;19921;-71
2023/01/09 03:10:02;;;;;;;;;;;;;;;3.47;64.54;94809.97;4156515;28;19994;-72
2023/01/09 03:12:08;;;;;;;;;;;;;;;3.49;64.60;94808.09;4158550;28;19971;-71
2023/01/09 03:14:11;;;;;;;;;;;;;;;3.53;64.37;94806.09;4143986;28;19925;-71
2023/01/09 03:16:16;;;;;;;;;;;;;;;3.48;64.65;94815.06;4153450;28;19921;-70
2023/01/09 03:18:18;;;;;;;;;;;;;;;3.51;64.49;94819.19;4164564;28;20039;-71
2023/01/09 03:20:21;;;;;;;;;;;;;;;3.47;64.56;94823.75;4149799;28;20031;-71
2023/01/09 03:22:23;;;;;;;;;;;;;;;3.43;64.36;94817.13;4168519;28;19924;-73
2023/01/09 03:24:24;;;;;;;;;;;;;;;3.38;65.05;94821.03;4157207;28;20367;-70
2023/01/09 03:26:28;;;;;;;;;;;;;;;3.38;64.81;94821.03;4171818;28;19921;-71
2023/01/09 03:28:29;;;;;;;;;;;;;;;3.27;65.06;94812.28;4167690;28;19975;-71
2023/01/09 03:30:31;;;;;;;;;;;;;;;3.11;65.26;94814.31;4158143;28;19992;-72
2023/01/09 03:32:33;;;;;;;;;;;;;;;3.01;65.94;94813.31;4175435;28;20019;-72
2023/01/09 03:34:34;;;;;;;;;;;;;;;2.99;66.15;94816.03;4171064;28;20214;-71
2023/01/09 03:36:36;;;;;;;;;;;;;;;2.96;66.03;94815.41;4172013;28;19928;-68
2023/01/09 03:38:39;;;;;;;;;;;;;;;2.94;66.60;94814.69;4175357;28;19959;-70
2023/01/09 03:40:42;;;;;;;;;;;;;;;2.89;66.57;94809.03;4170141;28;19921;-71
2023/01/09 03:42:44;;;;;;;;;;;;;;;2.94;66.33;94812.94;4161992;28;19929;-72
2023/01/09 03:44:45;;;;;;;;;;;;;;;2.85;66.63;94813.59;4152722;28;19928;-73
2023/01/09 03:46:49;;;;;;;;;;;;;;;2.89;66.60;94804.69;4170654;28;19930;-70
2023/01/09 03:48:50;;;;;;;;;;;;;;;2.99;66.75;94820.34;4176000;28;20000;-71
2023/01/09 03:50:52;;;;;;;;;;;;;;;3.07;66.32;94812.88;4166480;28;19998;-71
2023/01/09 03:52:54;;;;;;;;;;;;;;;3.13;66.18;94817.59;4158683;28;19978;-70
2023/01/09 03:54:55;;;;;;;;;;;;;;;3.20;65.60;94823.97;4169760;28;19927;-73
2023/01/09 03:56:57;;;;;;;;;;;;;;;3.18;65.23;94809.50;4179028;28;20209;-71
2023/01/09 03:58:58;;;;;;;;;;;;;;;3.20;65.60;94811.03;4179268;28;19932;-72
2023/01/09 04:01:01;;;;;;;;;;;;;;;3.21;65.41;94804.13;4173168;28;20360;-71
2023/01/09 04:03:03;;;;;;;;;;;;;;;3.25;65.39;94801.19;4172494;28;19925;-71
2023/01/09 04:05:04;;;;;;;;;;;;;;;3.32;65.53;94811.94;4157242;28;20077;-72
2023/01/09 04:07:06;;;;;;;;;;;;;;;3.36;65.14;94820.31;4176033;28;20265;-72
2023/01/09 04:09:09;;;;;;;;;;;;;;;3.38;65.06;94813.25;4175932;28;20349;-70
2023/01/09 04:11:10;;;;;;;;;;;;;;;3.39;64.83;94810.53;4179080;28;19924;-71
2023/01/09 04:13:12;;;;;;;;;;;;;;;3.41;65.08;94813.00;4161088;28;19928;-70
2023/01/09 04:15:13;;;;;;;;;;;;;;;3.36;65.22;94817.72;4172991;28;19933;-70
2023/01/09 04:17:15;;;;;;;;;;;;;;;3.33;65.17;94804.97;4175770;28;20402;-70
2023/01/09 04:19:17;;;;;;;;;;;;;;;3.34;65.15;94804.88;4160570;28;20337;-71
2023/01/09 04:21:19;;;;;;;;;;;;;;;3.31;65.13;94801.66;4176730;28;19924;-72
2023/01/09 04:23:20;;;;;;;;;;;;;;;3.25;64.87;94801.19;4177808;28;19920;-72
2023/01/09 04:25:22;;;;;;;;;;;;;;;3.34;65.25;94802.28;4160855;28;20020;-73
2023/01/09 04:27:23;;;;;;;;;;;;;;;3.36;65.42;94807.34;4178485;28;20236;-71
2023/01/09 04:29:25;;;;;;;;;;;;;;;3.39;65.13;94807.13;4177834;28;19982;-72
2023/01/09 04:31:26;;;;;;;;;;;;;;;3.41;64.95;94802.66;4178743;28;20237;-72
2023/01/09 04:33:28;;;;;;;;;;;;;;;3.38;64.33;94803.72;4178329;28;20001;-70
2023/01/09 04:35:29;;;;;;;;;;;;;;;3.36;65.42;94797.00;4177444;28;19932;-71
2023/01/09 04:37:37;;;;;;;;;;;;;;;3.40;65.23;94786.31;4172207;28;19921;-72
2023/01/09 04:39:42;;;;;;;;;;;;;;;3.45;64.60;94788.53;4170070;28;20012;-69
2023/01/09 04:41:49;;;;;;;;;;;;;;;3.43;64.65;94793.00;4176726;28;19928;-69
2023/01/09 04:43:51;;;;;;;;;;;;;;;3.39;64.47;94789.81;4175382;28;19921;-73
2023/01/09 04:45:52;;;;;;;;;;;;;;;3.39;64.82;94792.41;4165126;28;19998;-73
2023/01/09 04:47:54;;;;;;;;;;;;;;;3.36;64.40;94790.06;4165313;28;19920;-69
2023/01/09 04:49:56;;;;;;;;;;;;;;;3.28;64.25;94795.78;4167029;28;20302;-72
2023/01/09 04:51:58;;;;;;;;;;;;;;;3.30;65.00;94787.09;4177618;28;20343;-71
2023/01/09 04:53:59;;;;;;;;;;;;;;;3.26;64.59;94787.28;4178370;28;20012;-71
2023/01/09 04:56:01;;;;;;;;;;;;;;;3.31;65.04;94788.72;4157029;28;19928;-72
2023/01/09 04:58:02;;;;;;;;;;;;;;;3.26;65.04;94779.53;4165637;28;20430;-71
2023/01/09 05:00:08;;;;;;;;;;;;;;;3.27;64.45;94783.78;4170197;28;19924;-72
2023/01/09 05:02:10;;;;;;;;;;;;;;;3.23;64.71;94782.34;4183863;28;20020;-73
2023/01/09 05:04:13;;;;;;;;;;;;;;;3.28;64.81;94785.41;4178811;28;20003;-70
2023/01/09 05:06:17;;;;;;;;;;;;;;;3.31;64.72;94789.53;4170550;28;19920;-71
2023/01/09 05:08:19;;;;;;;;;;;;;;;3.24;64.92;94789.16;4182021;28;19967;-70
2023/01/09 05:10:21;;;;;;;;;;;;;;;3.26;64.68;94784.72;4176569;28;19924;-72
2023/01/09 05:12:22;;;;;;;;;;;;;;;3.21;65.54;94799.75;4182022;28;19936;-73
2023/01/09 05:14:24;;;;;;;;;;;;;;;3.19;65.54;94795.63;4175757;28;19920;-72
2023/01/09 05:16:26;;;;;;;;;;;;;;;3.18;65.95;94789.63;4178405;28;19921;-74
2023/01/09 05:18:27;;;;;;;;;;;;;;;3.15;65.22;94802.78;4184478;28;19939;-72
2023/01/09 05:20:29;;;;;;;;;;;;;;;3.19;65.30;94799.06;4183110;28;19933;-70
2023/01/09 05:22:31;;;;;;;;;;;;;;;3.16;64.87;94796.69;4167927;28;20027;-72
2023/01/09 05:24:33;;;;;;;;;;;;;;;3.16;65.46;94794.09;4180036;28;19936;-72
2023/01/09 05:26:34;;;;;;;;;;;;;;;3.19;65.48;94796.47;4183660;28;19925;-74
2023/01/09 05:28:36;;;;;;;;;;;;;;;3.23;65.44;94805.66;4159836;28;19976;-71
2023/01/09 05:30:38;;;;;;;;;;;;;;;3.22;64.84;94804.00;4185627;28;19980;-73
2023/01/09 05:32:39;;;;;;;;;;;;;;;3.25;65.27;94796.00;4179830;28;19970;-71
2023/01/09 05:34:41;;;;;;;;;;;;;;;3.27;65.54;94794.16;4176684;28;19920;-74
2023/01/09 05:36:43;;;;;;;;;;;;;;;3.26;65.51;94784.72;4155347;28;19932;-73
2023/01/09 05:38:44;;;;;;;;;;;;;;;3.34;65.55;94789.34;4177251;28;19921;-71
2023/01/09 05:40:46;;;;;;;;;;;;;;;3.37;65.46;94783.09;4155953;28;19921;-73
2023/01/09 05:42:48;;;;;;;;;;;;;;;3.38;65.02;94779.59;4180269;28;20297;-72
2023/01/09 05:44:49;;;;;;;;;;;;;;;3.32;65.01;94780.84;4167528;28;19927;-75
2023/01/09 05:46:51;;;;;;;;;;;;;;;3.31;65.40;94779.19;4182851;28;19944;-70
2023/01/09 05:48:53;;;;;;;;;;;;;;;3.22;65.45;94787.63;4185969;28;20301;-71
2023/01/09 05:50:54;;;;;;;;;;;;;;;3.23;66.09;94774.59;4185179;28;19921;-70
2023/01/09 05:52:56;;;;;;;;;;;;;;;3.27;65.78;94772.63;4183765;28;19924;-73
2023/01/09 05:54:58;;;;;;;;;;;;;;;2.99;65.83;94776.38;4181900;28;19980;-72
2023/01/09 05:56:59;;;;;;;;;;;;;;;2.89;66.37;94783.97;4158104;28;19921;-72
2023/01/09 05:59:01;;;;;;;;;;;;;;;2.90;66.79;94785.63;4176208;28;19935;-72
2023/01/09 06:01:03;;;;;;;;;;;;;;;2.97;66.46;94791.16;4180693;28;20253;-72
2023/01/09 06:03:05;;;;;;;;;;;;;;;3.01;66.73;94780.50;4179584;28;19928;-73
2023/01/09 06:05:06;;;;;;;;;;;;;;;3.09;66.33;94779.94;4171813;28;20416;-73
2023/01/09 06:07:09;;;;;;;;;;;;;;;3.14;66.41;94772.69;4171081;28;19928;-72
2023/01/09 06:09:11;;;;;;;;;;;;;;;3.20;66.58;94779.97;4169206;28;19931;-73
2023/01/09 06:11:12;;;;;;;;;;;;;;;3.31;66.02;94775.78;4181115;28;19925;-73
2023/01/09 06:13:14;;;;;;;;;;;;;;;3.34;65.14;94773.81;4179881;28;19951;-71
2023/01/09 06:15:16;;;;;;;;;;;;;;;3.28;65.69;94777.66;4181639;28;20340;-70
2023/01/09 06:17:18;;;;;;;;;;;;;;;3.35;65.32;94772.03;4181350;28;19939;-73
2023/01/09 06:19:20;;;;;;;;;;;;;;;3.33;65.92;94776.50;4148697;28;19921;-73
2023/01/09 06:21:22;;;;;;;;;;;;;;;3.34;65.69;94784.16;4170415;28;20051;-72
2023/01/09 06:23:23;;;;;;;;;;;;;;;3.38;65.43;94764.88;4158794;28;19925;-72
2023/01/09 06:25:25;;;;;;;;;;;;;;;3.39;65.24;94770.88;4166554;28;19983;-73
2023/01/09 06:27:26;;;;;;;;;;;;;;;3.39;65.00;94765.69;4178896;28;19927;-73
2023/01/09 06:29:28;;;;;;;;;;;;;;;3.45;64.87;94765.25;4181556;28;19952;-73
2023/01/09 06:31:30;;;;;;;;;;;;;;;3.47;65.20;94766.75;4163548;28;19986;-73
2023/01/09 06:33:32;;;;;;;;;;;;;;;3.48;65.00;94757.22;4162912;28;19925;-72
2023/01/09 06:35:33;;;;;;;;;;;;;;;3.55;65.60;94760.19;4180300;28;20398;-74
2023/01/09 06:37:35;;;;;;;;;;;;;;;3.53;64.92;94759.47;4181149;28;19921;-72
2023/01/09 06:39:37;;;;;;;;;;;;;;;3.62;65.10;94762.22;4166345;28;20020;-71
2023/01/09 06:41:40;;;;;;;;;;;;;;;3.62;64.49;94764.78;4183170;28;20012;-71
2023/01/09 06:43:42;;;;;;;;;;;;;;;3.67;65.12;94754.91;4166841;28;19929;-73
2023/01/09 06:45:44;;;;;;;;;;;;;;;3.70;64.85;94753.88;4183268;28;19924;-72
2023/01/09 06:47:47;;;;;;;;;;;;;;;3.73;65.61;94763.16;4183238;28;19931;-71
2023/01/09 06:49:49;;;;;;;;;;;;;;;3.76;64.95;94765.53;4166954;28;19979;-73
2023/01/09 06:51:50;;;;;;;;;;;;;;;3.83;64.52;94764.94;4166466;28;20395;-72
2023/01/09 06:53:52;;;;;;;;;;;;;;;3.90;64.63;94766.13;4172787;28;19921;-73
2023/01/09 06:55:54;;;;;;;;;;;;;;;3.94;64.63;94771.91;4175181;28;20335;-71
2023/01/09 06:57:55;;;;;;;;;;;;;;;3.92;64.41;94762.59;4180523;28;19920;-73
2023/01/09 06:59:57;;;;;;;;;;;;;;;3.94;64.46;94766.72;4180180;28;19920;-70
2023/01/09 07:01:59;;;;;;;;;;;;;;;4.08;64.22;94766.47;4154871;28;19921;-73
2023/01/09 07:04:00;;;;;;;;;;;;;;;4.19;63.58;94765.66;4161760;28;20523;-74
2023/01/09 07:06:02;;;;;;;;;;;;;;;4.21;63.00;94768.94;4166916;28;19963;-72
2023/01/09 07:08:04;;;;;;;;;;;;;;;4.26;63.44;94768.63;4174849;28;20386;-73
2023/01/09 07:10:06;;;;;;;;;;;;;;;4.21;63.44;94770.72;4175492;28;19951;-72
2023/01/09 07:12:07;;;;;;;;;;;;;;;4.29;63.49;94765.78;4152295;28;19921;-74
2023/01/09 07:14:09;;;;;;;;;;;;;;;4.40;63.23;94755.38;4160792;28;19943;-71
2023/01/09 07:16:10;;;;;;;;;;;;;;;4.51;62.46;94752.75;4169127;28;20287;-72
2023/01/09 07:18:12;;;;;;;;;;;;;;;4.54;62.39;94748.28;4172667;28;19929;-74
2023/01/09 07:20:14;;;;;;;;;;;;;;;4.59;62.99;94753.94;4175189;28;19961;-74
2023/01/09 07:22:16;;;;;;;;;;;;;;;4.69;62.54;94760.88;4171697;28;19924;-74
2023/01/09 07:24:17;;;;;;;;;;;;;;;4.71;62.32;94760.75;4166066;28;19984;-73
2023/01/09 07:26:19;;;;;;;;;;;;;;;4.72;62.89;94762.41;4166214;28;19925;-72
2023/01/09 07:28:20;;;;;;;;;;;;;;;4.83;61.86;94764.97;4166964;28;19920;-70
2023/01/09 07:30:22;;;;;;;;;;;;;;;4.91;61.41;94753.97;4169151;28;19979;-72
2023/01/09 07:32:24;;;;;;;;;;;;;;;5.02;61.50;94753.94;4156149;28;20292;-75
2023/01/09 07:34:25;;;;;;;;;;;;;;;5.07;61.85;94746.56;4170074;28;19971;-73
2023/01/09 07:36:27;;;;;;;;;;;;;;;5.19;61.64;94752.56;4175988;28;20295;-73
2023/01/09 07:38:28;;;;;;;;;;;;;;;5.24;61.61;94754.78;4157721;28;19921;-72
2023/01/09 07:40:30;;;;;;;;;;;;;;;5.32;60.96;94755.00;4175857;28;19924;-71
2023/01/09 07:42:32;;;;;;;;;;;;;;;5.40;60.55;94759.53;4176322;28;19991;-72
2023/01/09 07:44:33;;;;;;;;;;;;;;;5.49;60.42;94764.00;4175398;28;19936;-72
2023/01/09 07:46:35;;;;;;;;;;;;;;;5.53;60.94;94761.00;4174462;28;19956;-71
2023/01/09 07:48:36;;;;;;;;;;;;;;;5.56;60.77;94757.34;4176080;28;19947;-72
2023/01/09 07:50:38;;;;;;;;;;;;;;;5.59;60.87;94774.44;4176062;28;20015;-74
2023/01/09 07:52:39;;;;;;;;;;;;;;;5.59;61.11;94777.03;4175015;28;19927;-72
2023/01/09 07:54:41;;;;;;;;;;;;;;;5.62;61.19;94780.22;4174068;28;19929;-72
2023/01/09 07:56:42;;;;;;;;;;;;;;;5.56;61.03;94770.31;4176057;28;19921;-70
2023/01/09 07:58:44;;;;;;;;;;;;;;;5.40;61.99;94777.72;4176245;28;19925;-72
2023/01/09 08:00:45;;;;;;;;;;;;;;;5.53;61.92;94776.59;4174571;28;19997;-73
2023/01/09 08:02:51;;;;;;;;;;;;;;;5.63;62.26;94783.63;4170766;28;20360;-72
2023/01/09 08:04:53;;;;;;;;;;;;;;;5.82;61.87;94782.94;4152581;28;19952;-72
2023/01/09 08:06:55;;;;;;;;;;;;;;;5.88;61.84;94778.03;4158530;28;19951;-71
2023/01/09 08:08:57;;;;;;;;;;;;;;;5.82;61.44;94777.75;4158802;28;20119;-72
2023/01/09 08:10:59;;;;;;;;;;;;;;;5.75;62.14;94777.44;4155824;28;19928;-72
2023/01/09 08:13:00;;;;;;;;;;;;;;;5.75;62.25;94772.22;4156366;28;19921;-72
2023/01/09 08:15:02;;;;;;;;;;;;;;;5.87;61.97;94780.78;4156395;28;19972;-72
2023/01/09 08:17:04;;;;;;;;;;;;;;;5.96;61.45;94774.84;4156083;28;19925;-74
2023/01/09 08:19:05;;;;;;;;;;;;;;;6.09;61.32;94785.84;4155012;28;20334;-72
2023/01/09 08:21:07;;;;;;;;;;;;;;;6.09;60.74;94779.84;4130328;28;20063;-71
2023/01/09 08:23:08;;;;;;;;;;;;;;;5.90;61.07;94783.13;4155683;28;19948;-72
2023/01/09 08:25:10;;;;;;;;;;;;;;;5.37;62.44;94780.59;4156322;28;19978;-73
2023/01/09 08:27:13;;;;;;;;;;;;;;;5.04;63.61;94780.59;4162315;28;19921;-73
2023/01/09 08:29:14;;;;;;;;;;;;;;;4.91;63.59;94779.94;4162429;28;20019;-71
2023/01/09 08:31:16;;;;;;;;;;;;;;;4.83;65.02;94785.72;4158555;28;19921;-72
2023/01/09 08:33:18;;;;;;;;;;;;;;;4.89;64.56;94790.44;4162478;28;19920;-73
2023/01/09 08:35:19;;;;;;;;;;;;;;;4.79;65.24;94791.28;4162178;28;19924;-73
2023/01/09 08:37:23;;;;;;;;;;;;;;;5.00;64.56;94792.16;4161283;28;19955;-72
2023/01/09 08:39:24;;;;;;;;;;;;;;;5.25;64.64;94792.81;4162020;28;20017;-72
2023/01/09 08:48:34;;;;;;;;;;;;;;;5.23;64.10;94776.53;4148127;28;19931;-71
2023/01/09 08:50:36;;;;;;;;;;;;;;;5.11;64.05;94773.94;4165147;28;20026;-73
2023/01/09 08:52:38;;;;;;;;;;;;;;;4.80;65.92;94773.00;4161356;28;19921;-71
2023/01/09 08:54:39;;;;;;;;;;;;;;;4.86;65.78;94769.91;4161537;28;20443;-74
2023/01/09 08:56:41;;;;;;;;;;;;;;;5.06;65.65;94768.31;4159766;28;19943;-73
2023/01/09 08:58:43;;;;;;;;;;;;;;;5.02;64.85;94766.09;4162842;28;19964;-75
2023/01/09 09:00:45;;;;;;;;;;;;;;;5.24;65.14;94762.56;4160683;28;19979;-75
2023/01/09 09:02:54;;;;;;;;;;;;;;;5.37;64.49;94755.44;4144104;28;19972;-74
2023/01/09 09:04:56;;;;;;;;;;;;;;;5.60;64.50;94753.53;4153888;28;19925;-71
2023/01/09 09:06:58;;;;;;;;;;;;;;;5.47;64.45;94753.72;4154330;28;20044;-75
2023/01/09 09:09:02;;;;;;;;;;;;;;;5.38;64.81;94748.44;4149447;28;20281;-72
2023/01/09 09:11:04;;;;;;;;;;;;;;;5.65;63.98;94747.94;4149705;28;20313;-72
2023/01/09 09:13:06;;;;;;;;;;;;;;;5.96;63.89;94738.44;4158849;28;19988;-72
2023/01/09 09:15:23;;;;;;;;;;;;;;;6.29;62.67;94731.31;4151758;28;19921;-76
2023/01/09 09:17:25;;;;;;;;;;;;;;;6.39;61.56;94732.16;4148475;28;19964;-72
2023/01/09 09:19:27;;;;;;;;;;;;;;;6.06;62.10;94726.28;4149482;28;19925;-73
2023/01/09 09:21:28;;;;;;;;;;;;;;;6.12;62.75;94723.16;4149993;28;19924;-73
2023/01/09 09:23:30;;;;;;;;;;;;;;;5.81;63.78;94718.88;4134308;28;19929;-73
2023/01/09 09:25:32;;;;;;;;;;;;;;;5.87;63.61;94707.97;4154436;28;19922;-72
2023/01/09 09:27:36;;;;;;;;;;;;;;;5.95;63.23;94705.59;4159103;28;19958;-71
2023/01/09 09:29:38;;;;;;;;;;;;;;;6.18;63.32;94706.22;4159891;28;19940;-72
2023/01/09 09:31:39;;;;;;;;;;;;;;;6.59;62.71;94709.59;4152810;28;19960;-73
2023/01/09 09:33:41;;;;;;;;;;;;;;;6.75;61.15;94701.25;4137219;28;19921;-75
2023/01/09 09:35:42;;;;;;;;;;;;;;;6.97;61.40;94692.38;4155936;28;20384;-72
2023/01/09 09:37:54;;;;;;;;;;;;;;;6.88;60.71;94691.44;4151959;28;19924;-71
2023/01/09 09:39:55;;;;;;;;;;;;;;;6.94;60.79;94679.63;4142919;28;19940;-73
2023/01/09 09:44:45;;;;;;;;;;;;;;;7.48;59.69;94659.94;4160558;28;19925;-74
2023/01/09 09:47:05;;;;;;;;;;;;;;;7.43;58.64;94654.34;4148891;28;19996;-73
2023/01/09 09:49:10;;;;;;;;;;;;;;;7.56;59.17;94652.25;4143449;28;19925;-73
2023/01/09 09:51:20;;;;;;;;;;;;;;;7.81;58.71;94647.38;4160372;28;19921;-72
2023/01/09 09:53:22;;;;;;;;;;;;;;;8.07;57.86;94637.09;4160481;28;20328;-73
2023/01/09 09:55:25;;;;;;;;;;;;;;;8.06;56.38;94626.78;4160849;28;19924;-74
2023/01/09 09:57:31;;;;;;;;;;;;;;;8.04;56.77;94624.31;4131541;28;20341;-73
2023/01/09 09:59:33;;;;;;;;;;;;;;;7.77;57.09;94623.34;4142265;28;19929;-71
2023/01/09 10:01:49;;;;;;;;;;;;;;;7.58;58.23;94608.59;4142801;28;19991;-73
2023/01/09 10:03:51;;;;;;;;;;;;;;;7.80;58.24;94596.16;4152387;28;19921;-72
2023/01/09 10:05:53;;;;;;;;;;;;;;;8.00;57.73;94589.03;4158675;28;20467;-72
2023/01/09 10:07:55;;;;;;;;;;;;;;;8.23;57.19;94580.81;4167416;28;19965;-75
2023/01/09 10:10:04;;;;;;;;;;;;;;;8.27;56.95;94587.41;4159451;28;19929;-73
2023/01/09 10:12:06;;;;;;;;;;;;;;;8.05;57.63;94591.25;4159380;28;20011;-71
2023/01/09 10:14:09;;;;;;;;;;;;;;;7.83;57.23;94589.81;4177334;28;19932;-72
2023/01/09 10:16:42;;;;;;;;;;;;;;;7.75;58.09;94567.91;4175641;28;20370;-73
2023/01/09 10:18:53;;;;;;;;;;;;;;;7.99;57.64;94574.38;4177026;28;19920;-76
2023/01/09 10:21:01;;;;;;;;;;;;;;;8.24;57.15;94567.63;4157894;28;20235;-73
2023/01/09 10:23:11;;;;;;;;;;;;;;;8.39;57.05;94560.13;4171579;28;19924;-76
2023/01/09 10:25:31;;;;;;;;;;;;;;;8.49;56.24;94560.88;4177468;28;19986;-76
2023/01/09 10:27:33;;;;;;;;;;;;;;;8.69;56.43;94565.94;4176756;28;20023;-76
2023/01/09 10:29:35;;;;;;;;;;;;;;;8.85;55.91;94562.66;4176790;28;19927;-72
2023/01/09 10:31:57;;;;;;;;;;;;;;;8.69;55.45;94558.94;4176670;28;20039;-72
2023/01/09 10:33:59;;;;;;;;;;;;;;;8.39;56.32;94549.69;4166737;28;19981;-72
2023/01/09 10:36:00;;;;;;;;;;;;;;;8.40;56.79;94553.91;4168614;28;19983;-72
2023/01/09 10:38:02;;;;;;;;;;;;;;;8.57;56.42;94560.94;4170471;28;19978;-72
2023/01/09 10:40:18;;;;;;;;;;;;;;;8.69;55.84;94550.25;4176309;28;19920;-72
2023/01/09 10:42:20;;;;;;;;;;;;;;;8.86;55.97;94541.56;4158695;28;19933;-70
2023/01/09 10:44:23;;;;;;;;;;;;;;;8.48;56.43;94538.34;4176671;28;20276;-74
2023/01/09 10:46:31;;;;;;;;;;;;;;;8.55;56.21;94536.78;4157542;28;20014;-74
2023/01/09 10:48:36;;;;;;;;;;;;;;;8.34;56.44;94533.63;4175732;28;19963;-71
2023/01/09 10:50:38;;;;;;;;;;;;;;;8.47;56.42;94525.44;4175809;28;19975;-74
2023/01/09 10:52:40;;;;;;;;;;;;;;;8.36;56.89;94527.28;4141562;28;19925;-72
2023/01/09 10:54:53;;;;;;;;;;;;;;;8.51;56.97;94519.78;4176260;28;19956;-71
2023/01/09 10:57:00;;;;;;;;;;;;;;;8.76;57.23;94507.72;4176442;28;19935;-73
2023/01/09 10:59:02;;;;;;;;;;;;;;;8.71;56.60;94501.31;4158475;28;20361;-73
2023/01/09 11:01:04;;;;;;;;;;;;;;;8.81;56.34;94502.03;4176495;28;20046;-74
2023/01/09 11:03:09;;;;;;;;;;;;;;;8.90;56.55;94498.50;4158329;28;19921;-73
2023/01/09 11:05:15;;;;;;;;;;;;;;;9.18;55.98;94503.56;4154308;28;19921;-70